Time;durP1;ratioP1;P1;durP2;ratioP2;P2;SDS_P1;SDS_P2;PMS_P1;PMS_P2;Temp;Humidity;BMP_temperature;BMP_pressure;BME280_temperature;BME280_humidity;BME280_pressure;Samples;Min_cycle;Max_cycle;Signal;HPM_P1;HPM_P2
2021/03/29 00:00:32;;;;;;;11.07;4.40;;;9.30;99.90;;;;;;5071053;28;20376;-81
2021/03/29 00:03:00;;;;;;;9.35;4.30;;;9.30;99.90;;;;;;5090081;28;20394;-82
2021/03/29 00:05:28;;;;;;;9.85;4.60;;;9.30;99.90;;;;;;5092244;28;20394;-81
2021/03/29 00:08:05;;;;;;;9.07;4.45;;;9.20;99.90;;;;;;5094235;28;20389;-68
2021/03/29 00:10:34;;;;;;;10.00;4.70;;;9.20;99.90;;;;;;5092716;28;20381;-80
2021/03/29 00:13:01;;;;;;;11.50;4.22;;;9.10;99.90;;;;;;5093625;28;20484;-81
2021/03/29 00:15:31;;;;;;;10.02;4.55;;;9.10;99.90;;;;;;5092071;28;20425;-81
2021/03/29 00:17:58;;;;;;;14.35;4.75;;;9.10;99.90;;;;;;5093670;28;20445;-71
2021/03/29 00:20:27;;;;;;;14.82;4.93;;;8.80;99.90;;;;;;5091256;28;20401;-79
2021/03/29 00:22:55;;;;;;;10.50;4.53;;;10.20;99.90;;;;;;5075114;28;20437;-73
2021/03/29 00:25:22;;;;;;;9.02;3.92;;;9.10;99.90;;;;;;5092072;28;20551;-80
2021/03/29 00:27:48;;;;;;;9.45;4.40;;;9.10;99.90;;;;;;5093519;28;20405;-81
2021/03/29 00:30:23;;;;;;;9.15;4.32;;;9.10;99.90;;;;;;5091871;28;20386;-81
2021/03/29 00:32:51;;;;;;;11.67;4.80;;;9.10;99.90;;;;;;5089596;28;20385;-82
2021/03/29 00:35:19;;;;;;;9.60;4.30;;;9.00;99.90;;;;;;5093629;28;20378;-81
2021/03/29 00:37:50;;;;;;;10.82;4.25;;;8.90;99.90;;;;;;5092469;28;20413;-81
2021/03/29 00:40:18;;;;;;;10.35;4.50;;;8.90;99.90;;;;;;5092745;28;20414;-81
2021/03/29 00:42:45;;;;;;;9.10;4.10;;;8.90;99.90;;;;;;5093682;28;20378;-81
2021/03/29 00:45:14;;;;;;;10.00;4.05;;;9.10;99.90;;;;;;5091576;28;20546;-61
2021/03/29 00:47:40;;;;;;;10.57;4.10;;;8.90;99.90;;;;;;5090928;28;20409;-81
2021/03/29 00:50:15;;;;;;;10.90;4.55;;;8.80;99.90;;;;;;5093058;28;20397;-81
2021/03/29 00:52:42;;;;;;;9.93;4.30;;;8.60;99.90;;;;;;5091491;28;20404;-69
2021/03/29 00:55:09;;;;;;;8.82;4.15;;;8.80;99.90;;;;;;5093490;28;20401;-66
2021/03/29 00:57:39;;;;;;;12.00;4.30;;;8.80;99.90;;;;;;5091802;28;20418;-73
2021/03/29 01:00:17;;;;;;;9.63;4.18;;;8.80;99.90;;;;;;5093629;28;20836;-81
2021/03/29 01:02:43;;;;;;;10.48;4.30;;;8.70;99.90;;;;;;5093058;28;20370;-80
2021/03/29 01:05:20;;;;;;;11.48;4.00;;;8.70;99.90;;;;;;5073279;28;20474;-64
2021/03/29 01:07:49;;;;;;;10.45;3.67;;;8.80;99.90;;;;;;5093141;28;20847;-81
2021/03/29 01:10:15;;;;;;;10.48;3.33;;;8.90;99.90;;;;;;5092186;28;20844;-80
2021/03/29 01:12:43;;;;;;;9.75;4.20;;;9.10;99.90;;;;;;5092170;28;20398;-80
2021/03/29 01:15:12;;;;;;;8.73;3.78;;;8.90;99.90;;;;;;5074988;28;20398;-65
2021/03/29 01:17:40;;;;;;;7.50;4.07;;;8.90;99.90;;;;;;5092657;28;20444;-81
2021/03/29 01:20:09;;;;;;;10.15;4.22;;;8.80;99.90;;;;;;5092191;28;20401;-80
2021/03/29 01:22:36;;;;;;;9.32;4.00;;;8.70;99.90;;;;;;5092734;28;20370;-81
2021/03/29 01:25:19;;;;;;;8.00;3.90;;;8.70;99.90;;;;;;5091295;28;20763;-76
2021/03/29 01:28:09;;;;;;;10.35;4.53;;;8.50;99.90;;;;;;5074586;28;20802;-78
2021/03/29 01:30:37;;;;;;;10.55;4.20;;;8.40;99.90;;;;;;5077945;28;20386;-82
2021/03/29 01:33:06;;;;;;;11.27;4.70;;;8.30;99.90;;;;;;5091476;28;20386;-81
2021/03/29 01:35:47;;;;;;;9.75;4.30;;;8.30;99.90;;;;;;5091172;28;20402;-78
2021/03/29 01:38:14;;;;;;;11.25;4.50;;;8.30;99.90;;;;;;5090280;28;20908;-79
2021/03/29 01:40:41;;;;;;;10.02;4.13;;;8.10;99.90;;;;;;5093193;28;20374;-81
2021/03/29 01:43:09;;;;;;;10.50;3.83;;;7.90;99.90;;;;;;5091320;28;20397;-81
2021/03/29 01:45:36;;;;;;;10.55;4.15;;;7.80;99.90;;;;;;5091274;28;20428;-81
2021/03/29 01:48:04;;;;;;;11.65;4.00;;;7.80;99.90;;;;;;5092224;28;20374;-80
2021/03/29 01:50:34;;;;;;;9.90;4.15;;;7.90;99.90;;;;;;5091268;28;20402;-80
2021/03/29 01:53:01;;;;;;;10.03;4.23;;;7.90;99.90;;;;;;5091375;28;20871;-80
2021/03/29 01:55:29;;;;;;;9.05;4.13;;;7.90;99.90;;;;;;5092166;28;20374;-81
2021/03/29 01:57:55;;;;;;;10.98;4.00;;;7.90;99.90;;;;;;5091233;28;20417;-81
2021/03/29 02:00:40;;;;;;;9.18;4.10;;;8.00;99.90;;;;;;5091711;28;20393;-69
2021/03/29 02:03:07;;;;;;;10.88;3.90;;;8.00;99.90;;;;;;5091531;28;20400;-77
2021/03/29 02:05:34;;;;;;;8.75;4.30;;;8.10;99.90;;;;;;5090948;28;20389;-81
2021/03/29 02:08:01;;;;;;;9.30;4.60;;;8.00;99.90;;;;;;5091021;28;20406;-80
2021/03/29 02:10:30;;;;;;;10.63;4.00;;;8.00;99.90;;;;;;5093954;28;20997;-79
2021/03/29 02:13:01;;;;;;;8.55;3.88;;;7.90;99.90;;;;;;5096165;28;20389;-77
2021/03/29 02:15:28;;;;;;;12.38;4.30;;;8.00;99.90;;;;;;5093826;28;20421;-80
2021/03/29 02:18:03;;;;;;;9.60;5.00;;;8.10;99.90;;;;;;5092250;28;20496;-81
2021/03/29 02:20:33;;;;;;;9.50;4.20;;;8.10;99.90;;;;;;5090916;28;20725;-80
2021/03/29 02:23:00;;;;;;;12.60;4.80;;;8.10;99.90;;;;;;5090604;28;20447;-79
2021/03/29 02:25:29;;;;;;;9.00;4.40;;;8.10;99.90;;;;;;5090211;28;20401;-80
2021/03/29 02:27:56;;;;;;;10.40;4.20;;;8.00;99.90;;;;;;5090681;28;20481;-77
2021/03/29 02:30:27;;;;;;;10.48;4.35;;;7.90;99.90;;;;;;5091556;28;20752;-81
2021/03/29 02:32:53;;;;;;;10.75;4.80;;;7.70;99.90;;;;;;5093275;28;20836;-81
2021/03/29 02:35:21;;;;;;;9.73;3.97;;;7.70;99.90;;;;;;5090396;28;20405;-80
2021/03/29 02:37:52;;;;;;;8.60;3.75;;;7.70;99.90;;;;;;5092384;28;20398;-81
2021/03/29 02:40:20;;;;;;;13.52;4.30;;;7.60;99.90;;;;;;5090687;28;20413;-81
2021/03/29 02:42:47;;;;;;;10.30;4.63;;;7.60;99.90;;;;;;5092326;28;20512;-80
2021/03/29 02:45:14;;;;;;;8.88;4.72;;;7.60;99.90;;;;;;5089432;28;20398;-80
2021/03/29 02:47:42;;;;;;;10.50;3.90;;;7.60;99.90;;;;;;5092095;28;20477;-80
2021/03/29 02:50:14;;;;;;;7.83;3.80;;;7.50;99.90;;;;;;5092171;28;20382;-80
2021/03/29 02:52:43;;;;;;;10.83;4.30;;;7.50;99.90;;;;;;5090681;28;20385;-81
2021/03/29 02:55:12;;;;;;;8.70;3.70;;;7.40;99.90;;;;;;5089381;28;20393;-79
2021/03/29 02:57:40;;;;;;;12.25;4.30;;;7.30;99.90;;;;;;5091215;28;20725;-80
2021/03/29 03:00:12;;;;;;;9.33;4.10;;;7.30;99.90;;;;;;5092503;28;20374;-80
2021/03/29 03:02:38;;;;;;;9.73;3.70;;;7.30;99.90;;;;;;5090545;28;20390;-80
2021/03/29 03:05:06;;;;;;;8.90;4.15;;;7.30;99.90;;;;;;5091581;28;20378;-80
2021/03/29 03:07:32;;;;;;;8.07;4.38;;;7.50;99.90;;;;;;5091425;28;20524;-81
2021/03/29 03:09:58;;;;;;;9.65;4.15;;;7.50;99.90;;;;;;5090139;28;20848;-80
2021/03/29 03:12:25;;;;;;;13.40;4.70;;;7.50;99.90;;;;;;5090366;28;20394;-80
2021/03/29 03:14:53;;;;;;;12.13;4.80;;;7.50;99.90;;;;;;5091212;28;20497;-80
2021/03/29 03:17:18;;;;;;;10.55;4.60;;;7.50;99.90;;;;;;5089314;28;20990;-79
2021/03/29 03:19:44;;;;;;;11.18;4.32;;;7.50;99.90;;;;;;5091380;28;20449;-80
2021/03/29 03:22:13;;;;;;;9.40;4.73;;;7.30;99.90;;;;;;5091605;28;20438;-68
2021/03/29 03:24:39;;;;;;;9.27;4.10;;;7.20;99.90;;;;;;5090135;28;20767;-79
2021/03/29 03:27:09;;;;;;;11.53;4.53;;;7.20;99.90;;;;;;5090345;28;20394;-80
2021/03/29 03:29:42;;;;;;;10.00;5.03;;;7.10;99.90;;;;;;5090711;28;20370;-80
2021/03/29 03:32:16;;;;;;;10.68;3.85;;;7.10;99.90;;;;;;5082691;28;20402;-76
2021/03/29 03:34:43;;;;;;;10.27;4.38;;;7.10;99.90;;;;;;5086046;28;20362;-80
2021/03/29 03:37:16;;;;;;;10.85;5.20;;;7.20;99.90;;;;;;5088211;28;20417;-78
2021/03/29 03:39:47;;;;;;;9.10;4.35;;;7.20;99.90;;;;;;5090690;28;20877;-78
2021/03/29 03:42:14;;;;;;;9.73;4.13;;;7.20;99.90;;;;;;5083272;28;20384;-64
2021/03/29 03:44:41;;;;;;;8.52;4.00;;;7.20;99.90;;;;;;5082412;28;20891;-80
2021/03/29 03:47:09;;;;;;;9.45;3.83;;;7.20;99.90;;;;;;5089053;28;20446;-72
2021/03/29 03:49:35;;;;;;;10.38;4.22;;;7.10;99.90;;;;;;5080099;28;20438;-78
2021/03/29 03:52:02;;;;;;;11.05;5.03;;;7.00;99.90;;;;;;5079307;28;20386;-72
2021/03/29 03:54:28;;;;;;;10.82;4.22;;;6.90;99.90;;;;;;5088833;28;20419;-79
2021/03/29 03:56:54;;;;;;;13.75;4.75;;;6.90;99.90;;;;;;5090469;28;20410;-77
2021/03/29 03:59:20;;;;;;;10.68;4.38;;;6.80;99.90;;;;;;5088010;28;20402;-79
2021/03/29 04:02:01;;;;;;;12.40;4.75;;;6.80;99.90;;;;;;5089931;28;20375;-78
2021/03/29 04:04:26;;;;;;;12.07;4.90;;;6.90;99.90;;;;;;5089345;28;20396;-75
2021/03/29 04:06:52;;;;;;;9.50;4.70;;;6.80;99.90;;;;;;5088132;28;20469;-77
2021/03/29 04:09:20;;;;;;;12.13;4.70;;;6.70;99.90;;;;;;5088953;28;20418;-74
2021/03/29 04:11:50;;;;;;;13.20;5.27;;;6.60;99.90;;;;;;5090066;28;20389;-78
2021/03/29 04:14:17;;;;;;;10.07;5.05;;;6.60;99.90;;;;;;5087842;28;20450;-71
2021/03/29 04:16:44;;;;;;;12.68;5.32;;;7.00;99.90;;;;;;5078682;28;20474;-78
2021/03/29 04:19:09;;;;;;;12.70;5.17;;;6.70;99.90;;;;;;5079803;28;20425;-77
2021/03/29 04:21:35;;;;;;;11.48;5.20;;;6.70;99.90;;;;;;5054051;28;20382;-79
2021/03/29 04:24:01;;;;;;;10.00;5.05;;;6.80;99.90;;;;;;5087966;28;20748;-78
2021/03/29 04:26:27;;;;;;;11.13;5.43;;;6.90;99.90;;;;;;5070263;28;20421;-78
2021/03/29 04:28:53;;;;;;;14.33;5.80;;;7.10;99.90;;;;;;5077641;28;20434;-80
2021/03/29 04:31:18;;;;;;;12.00;5.13;;;7.10;99.90;;;;;;5077992;28;20421;-79
2021/03/29 04:33:44;;;;;;;11.50;5.80;;;7.30;99.90;;;;;;5089897;28;20385;-81
2021/03/29 04:36:10;;;;;;;11.00;5.32;;;7.30;99.90;;;;;;5089363;28;20488;-80
2021/03/29 04:38:35;;;;;;;12.43;4.60;;;7.40;99.90;;;;;;5090130;28;20879;-80
2021/03/29 04:41:01;;;;;;;14.93;4.85;;;7.30;99.90;;;;;;5089033;28;20397;-77
2021/03/29 04:43:27;;;;;;;9.40;4.88;;;7.30;99.90;;;;;;5089018;28;20378;-77
2021/03/29 04:45:52;;;;;;;15.60;6.43;;;7.20;99.90;;;;;;5069590;28;20393;-68
2021/03/29 04:48:18;;;;;;;9.73;4.72;;;7.30;99.90;;;;;;5088834;28;20802;-76
2021/03/29 04:50:44;;;;;;;13.80;5.37;;;7.30;99.90;;;;;;5074131;28;20442;-78
2021/03/29 04:53:10;;;;;;;10.75;5.20;;;7.30;99.90;;;;;;5093288;28;20766;-76
2021/03/29 04:55:35;;;;;;;9.70;4.80;;;7.30;99.90;;;;;;5091132;28;20402;-74
2021/03/29 04:58:01;;;;;;;11.53;4.77;;;7.40;99.90;;;;;;5092814;28;20921;-77
2021/03/29 05:00:26;;;;;;;11.68;4.82;;;7.40;99.90;;;;;;5091251;28;20405;-74
2021/03/29 05:02:52;;;;;;;9.60;5.37;;;7.40;99.90;;;;;;5092346;28;20856;-74
2021/03/29 05:05:18;;;;;;;10.18;5.65;;;7.40;99.90;;;;;;5090706;28;20436;-75
2021/03/29 05:07:46;;;;;;;10.53;4.90;;;7.40;99.90;;;;;;5092932;28;20379;-73
2021/03/29 05:10:13;;;;;;;9.70;5.97;;;7.50;99.90;;;;;;5086220;28;20410;-62
2021/03/29 05:12:39;;;;;;;11.80;5.10;;;7.40;99.90;;;;;;5091843;28;20382;-72
2021/03/29 05:15:09;;;;;;;9.93;4.97;;;7.50;99.90;;;;;;5090808;28;20449;-70
2021/03/29 05:17:34;;;;;;;11.70;4.95;;;7.50;99.90;;;;;;5091779;28;20405;-70
2021/03/29 05:20:01;;;;;;;13.83;5.30;;;7.50;99.90;;;;;;5090881;28;20390;-71
2021/03/29 05:22:27;;;;;;;11.70;5.10;;;7.50;99.90;;;;;;5091685;28;20374;-68
2021/03/29 05:24:52;;;;;;;11.20;5.20;;;7.50;99.90;;;;;;5091039;28;20394;-70
2021/03/29 05:27:18;;;;;;;16.27;5.70;;;7.50;99.90;;;;;;5091613;28;20736;-67
2021/03/29 05:29:45;;;;;;;13.33;5.50;;;7.50;99.90;;;;;;5091511;28;20879;-67
2021/03/29 05:32:19;;;;;;;14.00;5.20;;;7.50;99.90;;;;;;5090653;28;20398;-68
2021/03/29 05:34:48;;;;;;;11.60;4.97;;;7.60;99.90;;;;;;5092372;28;20382;-67
2021/03/29 05:37:15;;;;;;;10.20;4.80;;;7.60;99.90;;;;;;5090255;28;20409;-60
2021/03/29 05:39:41;;;;;;;13.60;5.10;;;7.60;99.90;;;;;;5091462;28;20382;-67
2021/03/29 05:42:08;;;;;;;13.02;4.65;;;7.60;99.90;;;;;;5090683;28;20386;-67
2021/03/29 05:44:35;;;;;;;10.05;4.55;;;7.70;99.90;;;;;;5091135;28;20390;-67
2021/03/29 05:47:02;;;;;;;12.90;5.97;;;7.70;99.90;;;;;;5072526;28;20409;-68
2021/03/29 05:49:27;;;;;;;13.02;5.95;;;7.80;99.90;;;;;;5090895;28;20395;-67
2021/03/29 05:51:53;;;;;;;13.50;5.75;;;7.90;99.90;;;;;;5090234;28;20394;-68
2021/03/29 05:54:19;;;;;;;12.93;5.00;;;8.00;99.90;;;;;;5088449;28;20397;-66
2021/03/29 05:56:46;;;;;;;12.02;5.38;;;8.10;99.90;;;;;;5055928;28;20862;-67
2021/03/29 06:01:52;;;;;;;12.37;5.30;;;8.50;99.90;;;;;;5073298;28;20781;-67
2021/03/29 06:04:40;;;;;;;12.80;5.20;;;8.70;99.90;;;;;;5087201;28;20400;-66
2021/03/29 06:07:38;;;;;;;14.25;5.07;;;8.70;99.90;;;;;;5073101;28;20760;-68
2021/03/29 06:10:10;;;;;;;13.27;4.65;;;9.20;99.90;;;;;;5089854;28;20402;-67
2021/03/29 06:12:46;;;;;;;9.15;4.80;;;9.40;99.90;;;;;;5086999;28;20402;-68
2021/03/29 06:15:13;;;;;;;15.27;5.28;;;9.70;99.90;;;;;;5090669;28;20452;-66
2021/03/29 06:17:39;;;;;;;11.18;4.97;;;10.10;99.90;;;;;;5089287;28;20445;-67
2021/03/29 06:20:06;;;;;;;10.23;5.15;;;10.50;99.90;;;;;;5090922;28;20421;-65
2021/03/29 06:22:34;;;;;;;11.02;4.90;;;10.40;99.90;;;;;;5088596;28;20426;-67
2021/03/29 06:25:20;;;;;;;15.15;5.70;;;10.50;99.90;;;;;;5090168;28;20385;-66
2021/03/29 06:27:56;;;;;;;10.50;5.25;;;10.50;99.90;;;;;;5089378;28;20425;-67
2021/03/29 06:30:24;;;;;;;13.90;5.80;;;10.40;99.90;;;;;;5080060;28;20409;-67
2021/03/29 06:33:04;;;;;;;15.68;5.50;;;10.40;99.90;;;;;;5073615;28;20433;-67
2021/03/29 06:35:38;;;;;;;13.68;5.50;;;10.30;99.90;;;;;;5071229;28;20398;-67
2021/03/29 06:38:17;;;;;;;12.63;5.50;;;10.30;99.90;;;;;;5070867;28;20818;-67
2021/03/29 06:40:55;;;;;;;12.00;5.15;;;9.40;99.90;;;;;;5090694;28;20827;-63
2021/03/29 06:43:23;;;;;;;11.40;5.65;;;10.40;99.90;;;;;;5088709;28;20390;-67
2021/03/29 06:45:52;;;;;;;13.18;5.30;;;10.20;99.90;;;;;;5090229;28;20412;-64
2021/03/29 06:48:28;;;;;;;17.55;5.80;;;10.30;99.90;;;;;;5088347;28;20394;-67
2021/03/29 06:51:07;;;;;;;13.40;7.00;;;10.40;99.90;;;;;;5090352;28;20385;-66
2021/03/29 06:53:32;;;;;;;11.27;6.47;;;10.50;99.90;;;;;;5089771;28;20464;-68
2021/03/29 06:56:39;;;;;;;11.80;6.00;;;10.60;99.90;;;;;;5088646;28;20962;-67
2021/03/29 06:59:04;;;;;;;13.20;6.32;;;11.30;99.90;;;;;;5023904;28;20414;-68
2021/03/29 07:01:32;;;;;;;10.47;5.70;;;12.30;99.90;;;;;;5069629;28;20454;-67
2021/03/29 07:03:58;;;;;;;14.82;5.93;;;12.60;99.90;;;;;;5066392;28;20380;-65
2021/03/29 07:06:28;;;;;;;11.85;5.20;;;13.70;99.90;;;;;;5051390;28;20419;-66
2021/03/29 07:09:05;;;;;;;16.63;6.43;;;15.50;96.40;;;;;;5082176;28;20524;-65
2021/03/29 07:11:32;;;;;;;10.40;5.75;;;16.30;92.10;;;;;;5088849;28;20395;-67
2021/03/29 07:13:58;;;;;;;12.15;6.00;;;16.30;90.90;;;;;;5089368;28;20410;-68
2021/03/29 07:16:26;;;;;;;12.65;5.15;;;16.60;90.10;;;;;;5070906;28;20488;-66
2021/03/29 07:18:56;;;;;;;12.60;5.20;;;17.30;84.10;;;;;;5090174;28;20475;-66
2021/03/29 07:21:22;;;;;;;9.52;4.97;;;16.90;80.90;;;;;;5088892;28;20385;-66
2021/03/29 07:23:48;;;;;;;11.00;5.22;;;16.70;80.10;;;;;;5071189;28;20394;-67
2021/03/29 07:26:31;;;;;;;10.73;4.87;;;16.10;81.60;;;;;;5071544;28;21288;-66
2021/03/29 07:28:57;;;;;;;11.10;5.30;;;15.90;82.80;;;;;;5088123;28;20751;-66
2021/03/29 07:31:37;;;;;;;12.70;6.00;;;15.50;85.20;;;;;;5088974;28;20469;-63
2021/03/29 07:34:03;;;;;;;11.57;6.18;;;15.40;86.20;;;;;;5088459;28;20443;-66
2021/03/29 07:36:42;;;;;;;12.10;5.70;;;15.60;86.10;;;;;;5088961;28;20499;-66
2021/03/29 07:39:09;;;;;;;11.18;5.70;;;15.60;86.30;;;;;;5088137;28;20489;-66
2021/03/29 07:41:35;;;;;;;13.80;5.80;;;15.60;86.20;;;;;;5070554;28;20707;-64
2021/03/29 07:44:20;;;;;;;14.63;6.65;;;15.50;87.30;;;;;;5087856;28;20390;-68
2021/03/29 07:46:48;;;;;;;10.38;6.15;;;15.80;86.40;;;;;;5088471;28;20386;-66
2021/03/29 07:49:47;;;;;;;13.48;5.95;;;16.10;85.90;;;;;;5089202;28;20378;-67
2021/03/29 07:52:30;;;;;;;12.32;5.88;;;16.60;84.60;;;;;;5088210;28;20843;-67
2021/03/29 07:54:58;;;;;;;12.98;6.10;;;17.20;81.60;;;;;;5077195;28;20402;-67
2021/03/29 07:57:46;;;;;;;10.90;5.60;;;19.30;80.90;;;;;;5087702;28;20412;-67
2021/03/29 08:00:26;;;;;;;13.23;5.25;;;19.20;74.80;;;;;;5088108;28;20390;-67
2021/03/29 08:02:52;;;;;;;11.07;4.10;;;18.90;70.60;;;;;;5070475;28;20481;-66
2021/03/29 08:05:36;;;;;;;11.15;4.05;;;18.50;68.00;;;;;;5087860;28;20492;-60
2021/03/29 08:08:03;;;;;;;7.33;3.30;;;18.70;64.60;;;;;;5069170;28;20849;-67
2021/03/29 08:11:01;;;;;;;10.07;4.15;;;18.10;63.40;;;;;;5060319;28;20440;-66
2021/03/29 08:13:49;;;;;;;7.33;3.90;;;18.10;63.90;;;;;;5081379;28;20863;-63
2021/03/29 08:16:24;;;;;;;9.27;4.17;;;17.80;65.30;;;;;;5087440;28;20398;-64
2021/03/29 08:19:25;;;;;;;12.20;3.78;;;18.10;65.50;;;;;;5089111;28;20420;-67
2021/03/29 08:21:58;;;;;;;9.25;4.03;;;18.30;67.00;;;;;;5088837;28;20398;-66
2021/03/29 08:24:31;;;;;;;8.32;3.80;;;19.60;64.00;;;;;;5090197;28;20421;-63
2021/03/29 08:27:05;;;;;;;7.32;3.60;;;20.70;61.80;;;;;;5093171;28;20420;-65
2021/03/29 08:29:42;;;;;;;7.97;3.10;;;22.20;57.90;;;;;;5090778;28;20859;-66
2021/03/29 08:32:34;;;;;;;8.13;3.20;;;22.00;54.40;;;;;;5085323;28;20382;-66
2021/03/29 08:35:05;;;;;;;8.82;3.30;;;21.10;54.40;;;;;;5073395;28;20741;-66
2021/03/29 08:37:52;;;;;;;7.43;3.30;;;21.90;53.50;;;;;;5091816;28;20918;-66
2021/03/29 08:40:22;;;;;;;11.65;3.08;;;22.70;51.90;;;;;;5090877;28;20487;-65
2021/03/29 08:43:00;;;;;;;9.30;3.00;;;23.50;50.80;;;;;;5092410;28;20366;-65
2021/03/29 08:45:27;;;;;;;8.18;2.60;;;23.80;49.10;;;;;;5090492;28;20394;-64
2021/03/29 08:47:59;;;;;;;8.07;2.97;;;24.90;48.10;;;;;;5091489;28;20481;-65
2021/03/29 08:50:34;;;;;;;9.30;3.07;;;25.30;45.50;;;;;;5091908;28;20374;-66
2021/03/29 08:53:09;;;;;;;8.43;3.05;;;25.80;45.60;;;;;;5092984;28;20465;-66
2021/03/29 08:55:37;;;;;;;10.32;2.33;;;26.30;44.40;;;;;;5071909;28;20895;-66
2021/03/29 08:58:04;;;;;;;7.47;3.00;;;26.10;42.20;;;;;;5092187;28;20429;-66
2021/03/29 09:00:32;;;;;;;8.30;2.67;;;25.50;41.60;;;;;;5090559;28;20398;-65
2021/03/29 09:02:58;;;;;;;7.13;2.70;;;25.40;41.70;;;;;;5092402;28;20836;-65
2021/03/29 09:05:25;;;;;;;6.25;2.38;;;25.90;41.70;;;;;;5074846;28;20474;-65
2021/03/29 09:07:52;;;;;;;7.38;2.60;;;26.00;41.10;;;;;;5084240;28;20485;-64
2021/03/29 09:10:36;;;;;;;6.32;1.80;;;27.80;39.30;;;;;;5091623;28;20557;-60
2021/03/29 09:13:07;;;;;;;5.73;1.83;;;27.30;37.90;;;;;;5091156;28;20423;-64
2021/03/29 09:15:45;;;;;;;7.28;2.30;;;26.70;37.80;;;;;;5069169;28;20419;-65
2021/03/29 09:18:13;;;;;;;8.80;2.50;;;25.80;38.50;;;;;;5070699;28;20465;-66
2021/03/29 09:20:41;;;;;;;6.80;2.30;;;25.30;39.60;;;;;;5071179;28;20618;-65
2021/03/29 09:23:08;;;;;;;7.93;2.33;;;26.60;39.10;;;;;;5071886;28;20417;-65
2021/03/29 09:25:38;;;;;;;6.90;2.50;;;27.80;37.80;;;;;;5069667;28;20433;-66
2021/03/29 09:30:59;;;;;;;8.65;2.47;;;29.10;35.90;;;;;;5071479;28;20714;-66
2021/03/29 09:33:25;;;;;;;8.60;2.00;;;27.70;36.30;;;;;;5070391;28;20411;-65
2021/03/29 09:35:52;;;;;;;7.85;2.03;;;27.80;36.40;;;;;;5068835;28;20388;-65
2021/03/29 09:38:42;;;;;;;7.63;2.50;;;28.00;36.30;;;;;;5071661;28;20496;-64
2021/03/29 09:41:18;;;;;;;7.38;2.30;;;28.00;36.00;;;;;;5070848;28;20388;-65
2021/03/29 09:43:46;;;;;;;8.10;2.35;;;28.90;35.40;;;;;;5069798;28;20474;-65
2021/03/29 09:46:12;;;;;;;7.45;2.40;;;28.50;35.60;;;;;;5070120;28;20403;-65
2021/03/29 09:48:37;;;;;;;6.50;1.80;;;28.50;35.70;;;;;;5070592;28;20414;-66
2021/03/29 09:51:21;;;;;;;6.10;1.60;;;28.80;35.20;;;;;;5070319;28;20382;-66
2021/03/29 09:53:47;;;;;;;7.72;2.35;;;29.00;34.10;;;;;;5070476;28;20400;-65
2021/03/29 09:56:13;;;;;;;6.40;1.90;;;28.30;34.70;;;;;;5070410;28;20391;-65
2021/03/29 09:58:46;;;;;;;8.67;2.33;;;28.40;34.90;;;;;;5069386;28;20434;-60
2021/03/29 10:01:26;;;;;;;5.78;1.75;;;28.50;33.70;;;;;;5070752;28;20473;-62
2021/03/29 10:03:52;;;;;;;6.80;1.90;;;27.80;34.50;;;;;;5068825;28;20900;-62
2021/03/29 10:06:18;;;;;;;6.72;1.90;;;27.90;33.70;;;;;;5070621;28;20384;-65
2021/03/29 10:08:57;;;;;;;7.53;2.30;;;28.50;33.30;;;;;;5069579;28;20509;-63
2021/03/29 10:11:23;;;;;;;6.63;1.90;;;27.40;33.40;;;;;;5069460;28;20402;-64
2021/03/29 10:13:49;;;;;;;7.22;2.38;;;26.90;34.50;;;;;;5075917;28;20394;-65
2021/03/29 10:16:15;;;;;;;8.00;2.00;;;27.50;34.00;;;;;;5089284;28;20450;-65
2021/03/29 10:18:40;;;;;;;5.93;1.60;;;28.10;33.60;;;;;;5090367;28;20478;-65
2021/03/29 10:21:07;;;;;;;7.78;2.30;;;29.40;32.70;;;;;;5089526;28;20386;-65
2021/03/29 10:23:33;;;;;;;5.50;1.80;;;29.20;32.30;;;;;;5090341;28;20386;-65
2021/03/29 10:26:34;;;;;;;6.53;2.00;;;28.30;33.80;;;;;;5089497;28;20421;-64
2021/03/29 10:29:02;;;;;;;8.15;2.38;;;28.20;34.00;;;;;;5090045;28;20421;-64
2021/03/29 10:31:30;;;;;;;5.67;1.60;;;26.70;34.50;;;;;;5088561;28;20386;-64
2021/03/29 10:33:57;;;;;;;8.55;2.17;;;26.70;34.70;;;;;;5090197;28;20394;-64
2021/03/29 10:36:24;;;;;;;6.47;2.13;;;26.40;34.40;;;;;;5090040;28;20439;-60
2021/03/29 10:38:51;;;;;;;5.78;1.85;;;26.40;35.10;;;;;;5090730;28;20459;-62
2021/03/29 10:41:16;;;;;;;5.60;1.70;;;27.10;34.50;;;;;;5089337;28;20428;-64
2021/03/29 10:43:42;;;;;;;6.50;1.83;;;27.10;33.70;;;;;;5090215;28;20374;-64
2021/03/29 10:46:08;;;;;;;6.72;1.80;;;27.40;33.60;;;;;;5088624;28;20398;-62
2021/03/29 10:48:35;;;;;;;7.05;2.78;;;27.10;33.10;;;;;;5089723;28;20913;-64
2021/03/29 10:51:02;;;;;;;6.10;2.00;;;26.40;34.10;;;;;;5072449;28;20927;-64
2021/03/29 10:53:28;;;;;;;6.80;2.40;;;25.70;34.70;;;;;;5088712;28;20388;-62
2021/03/29 10:55:54;;;;;;;7.13;1.80;;;26.20;34.10;;;;;;5090073;28;20477;-63
2021/03/29 10:58:19;;;;;;;8.50;2.43;;;26.80;33.40;;;;;;5088560;28;20420;-60
2021/03/29 11:00:45;;;;;;;6.30;2.00;;;27.10;32.70;;;;;;5089914;28;20467;-64
2021/03/29 11:03:11;;;;;;;5.75;1.95;;;26.70;33.00;;;;;;5089741;28;20366;-63
2021/03/29 11:05:36;;;;;;;7.13;1.90;;;26.20;34.00;;;;;;5087025;28;20429;-64
2021/03/29 11:08:02;;;;;;;6.88;1.80;;;27.30;33.80;;;;;;5072734;28;20389;-64
2021/03/29 11:10:28;;;;;;;6.30;1.80;;;27.30;33.70;;;;;;5088188;28;20487;-64
2021/03/29 11:12:54;;;;;;;7.95;2.20;;;26.50;33.40;;;;;;5088691;28;20390;-63
2021/03/29 11:15:19;;;;;;;7.20;2.40;;;25.80;33.40;;;;;;5089318;28;20866;-60
2021/03/29 11:17:45;;;;;;;6.83;2.20;;;26.40;33.80;;;;;;5088330;28;20848;-64
2021/03/29 11:20:14;;;;;;;7.80;3.00;;;26.10;34.40;;;;;;5089857;28;20374;-63
2021/03/29 11:22:39;;;;;;;6.65;2.15;;;25.20;34.00;;;;;;5089360;28;20647;-62
2021/03/29 11:25:06;;;;;;;7.27;2.10;;;25.50;34.10;;;;;;5088946;28;20425;-65
2021/03/29 11:27:32;;;;;;;7.07;2.05;;;25.70;33.80;;;;;;5087769;28;20420;-65
2021/03/29 11:29:58;;;;;;;7.00;2.10;;;25.80;32.70;;;;;;5089423;28;20362;-65
2021/03/29 11:32:25;;;;;;;5.60;1.57;;;26.30;32.50;;;;;;5088057;28;20402;-60
2021/03/29 11:34:51;;;;;;;5.47;1.70;;;25.90;32.40;;;;;;5071634;28;20402;-59
2021/03/29 11:37:16;;;;;;;6.32;1.60;;;26.00;32.70;;;;;;5088226;28;20775;-58
2021/03/29 11:39:42;;;;;;;6.93;2.20;;;24.60;34.10;;;;;;5088427;28;21059;-58
2021/03/29 11:42:08;;;;;;;6.28;1.60;;;24.20;35.50;;;;;;5088792;28;20453;-57
2021/03/29 11:44:33;;;;;;;6.20;1.90;;;24.00;35.70;;;;;;5089097;28;20378;-65
2021/03/29 11:46:59;;;;;;;6.50;2.00;;;23.90;35.50;;;;;;5089827;28;20432;-64
2021/03/29 11:49:25;;;;;;;5.97;1.90;;;23.60;34.60;;;;;;5086869;28;20390;-62
2021/03/29 11:51:50;;;;;;;5.85;1.63;;;23.70;34.50;;;;;;5089718;28;20400;-64
2021/03/29 11:54:16;;;;;;;6.18;2.00;;;23.40;34.70;;;;;;5070594;28;20393;-62
2021/03/29 11:56:42;;;;;;;6.40;2.10;;;23.50;35.10;;;;;;5087618;28;21038;-65
2021/03/29 11:59:08;;;;;;;6.47;2.00;;;23.70;34.80;;;;;;5088016;28;20512;-64
2021/03/29 12:01:46;;;;;;;5.93;2.00;;;23.70;34.70;;;;;;5088475;28;20926;-66
2021/03/29 12:04:20;;;;;;;6.57;2.13;;;23.90;35.00;;;;;;5071244;28;20402;-64
2021/03/29 12:06:51;;;;;;;4.97;1.73;;;23.80;35.60;;;;;;5088175;28;20468;-64
2021/03/29 12:11:59;;;;;;;8.50;1.85;;;23.20;36.80;;;;;;5088275;28;20431;-64
2021/03/29 12:14:35;;;;;;;6.25;2.00;;;22.90;37.50;;;;;;5078977;28;20449;-64
2021/03/29 12:17:04;;;;;;;8.00;2.10;;;23.00;37.30;;;;;;5080439;28;20459;-60
2021/03/29 12:19:31;;;;;;;6.75;2.20;;;23.20;37.80;;;;;;5078458;28;20459;-63
2021/03/29 12:22:13;;;;;;;7.40;2.33;;;23.30;36.50;;;;;;5078124;28;20433;-65
2021/03/29 12:24:44;;;;;;;8.82;2.00;;;23.60;37.10;;;;;;5080352;28;20397;-62
2021/03/29 12:27:11;;;;;;;5.55;1.80;;;24.00;36.40;;;;;;5084813;28;20386;-65
2021/03/29 12:29:40;;;;;;;9.20;2.30;;;23.60;36.40;;;;;;5076276;28;20410;-62
2021/03/29 12:32:19;;;;;;;6.32;1.80;;;23.30;36.50;;;;;;5085071;28;20417;-63
2021/03/29 12:34:52;;;;;;;6.22;2.00;;;23.20;37.40;;;;;;5080476;28;20382;-65
2021/03/29 12:37:20;;;;;;;5.40;1.90;;;23.70;36.40;;;;;;5086256;28;20413;-64
2021/03/29 12:39:51;;;;;;;8.15;2.58;;;24.00;36.30;;;;;;5083165;28;20414;-61
2021/03/29 12:42:22;;;;;;;5.07;2.07;;;23.80;36.00;;;;;;5066247;28;20386;-64
2021/03/29 12:44:48;;;;;;;5.72;1.95;;;23.80;35.00;;;;;;5078992;28;20401;-64
2021/03/29 12:47:16;;;;;;;9.57;2.97;;;24.00;35.00;;;;;;5069099;28;20443;-63
2021/03/29 12:49:42;;;;;;;7.60;1.95;;;24.10;35.90;;;;;;5084799;28;20385;-65
2021/03/29 12:52:08;;;;;;;8.07;2.20;;;24.30;35.40;;;;;;5083972;28;20416;-64
2021/03/29 12:54:36;;;;;;;6.25;2.03;;;24.40;35.70;;;;;;5076880;28;20459;-63
2021/03/29 12:57:03;;;;;;;6.90;2.00;;;24.00;35.70;;;;;;5087207;28;20422;-63
2021/03/29 12:59:31;;;;;;;7.68;2.42;;;23.80;35.10;;;;;;5080184;28;20383;-63
2021/03/29 13:01:58;;;;;;;7.00;2.00;;;23.80;36.00;;;;;;5077119;28;20388;-64
2021/03/29 13:04:29;;;;;;;8.60;2.30;;;24.00;36.20;;;;;;5083937;28;20863;-62
2021/03/29 13:12:04;;;;;;;7.77;2.70;;;23.20;36.30;;;;;;5089801;28;20398;-63
2021/03/29 13:15:09;;;;;;;7.03;2.00;;;23.30;35.20;;;;;;5089559;28;20479;-63